createdAt,value
2017-03-18T00:00:24.069Z,2.88
2017-03-18T00:01:18.073Z,2.88
2017-03-18T00:02:12.561Z,2.86
2017-03-18T00:03:06.147Z,2.80
2017-03-18T00:03:54.150Z,2.79
2017-03-18T00:04:48.211Z,2.77
2017-03-18T00:05:42.202Z,2.76
2017-03-18T00:06:36.234Z,2.74
2017-03-18T00:07:30.307Z,2.74
2017-03-18T00:08:18.344Z,2.74
2017-03-18T00:09:12.617Z,2.80
2017-03-18T00:10:06.430Z,2.79
2017-03-18T00:11:00.443Z,2.80
2017-03-18T00:11:49.434Z,2.77
2017-03-18T00:12:43.796Z,2.76
2017-03-18T00:13:37.536Z,2.75
2017-03-18T00:14:37.576Z,2.75
2017-03-18T00:15:31.570Z,2.76
2017-03-18T00:16:25.603Z,2.73
2017-03-18T00:17:13.594Z,2.74
2017-03-18T00:18:07.727Z,2.72
2017-03-18T00:19:01.725Z,2.74
2017-03-18T00:19:56.748Z,2.74
2017-03-18T00:20:45.790Z,2.74
2017-03-18T00:21:45.791Z,2.72
2017-03-18T00:22:40.818Z,2.73
2017-03-18T00:23:34.891Z,2.73
2017-03-18T00:24:29.173Z,2.72
2017-03-18T00:25:16.933Z,2.72
2017-03-18T00:26:10.956Z,2.71
2017-03-18T00:27:06.004Z,2.72
2017-03-18T00:27:59.994Z,2.72
2017-03-18T00:28:55.017Z,2.74
2017-03-18T00:29:49.087Z,2.72
2017-03-18T00:30:38.155Z,2.71
2017-03-18T00:31:27.120Z,2.71
2017-03-18T00:32:28.137Z,2.72
2017-03-18T00:33:17.237Z,2.72
2017-03-18T00:34:06.432Z,2.72
2017-03-18T00:34:55.324Z,2.73
2017-03-18T00:35:44.329Z,2.73
2017-03-18T00:36:39.348Z,2.72
2017-03-18T00:37:34.378Z,2.74
2017-03-18T00:38:22.419Z,2.74
2017-03-18T00:39:16.772Z,2.74
2017-03-18T00:40:04.511Z,2.72
2017-03-18T00:41:05.540Z,2.71
2017-03-18T00:42:06.560Z,2.70
2017-03-18T00:42:55.621Z,2.74
2017-03-18T00:43:50.616Z,2.71
2017-03-18T00:44:38.726Z,2.70
2017-03-18T00:45:26.727Z,2.70
2017-03-18T00:46:14.749Z,2.72
2017-03-18T00:47:08.791Z,2.74
2017-03-18T00:48:02.782Z,2.74
2017-03-18T00:49:02.785Z,2.76
2017-03-18T00:49:56.867Z,2.77
2017-03-18T00:50:51.903Z,2.82
2017-03-18T00:51:51.983Z,2.84
2017-03-18T00:52:40.941Z,2.82
2017-03-18T00:53:35.976Z,2.84
2017-03-18T00:54:25.030Z,2.85
2017-03-18T00:55:20.021Z,2.84
2017-03-18T00:56:14.028Z,2.87
2017-03-18T00:57:09.141Z,2.86
2017-03-18T00:58:03.157Z,2.90
2017-03-18T00:58:58.137Z,2.91
2017-03-18T00:59:58.203Z,2.93
2017-03-18T01:00:58.200Z,2.94
2017-03-18T01:01:52.251Z,2.98
2017-03-18T01:02:46.292Z,2.96
2017-03-18T01:03:35.321Z,2.98
2017-03-18T01:04:30.346Z,2.98
2017-03-18T01:05:25.364Z,2.98
2017-03-18T01:06:14.436Z,3.00
2017-03-18T01:07:09.453Z,3.01
2017-03-18T01:08:03.485Z,3.04
2017-03-18T01:09:03.459Z,3.02
2017-03-18T01:09:52.550Z,3.06
2017-03-18T01:10:41.555Z,3.11
2017-03-18T01:11:35.697Z,3.10
2017-03-18T01:12:29.650Z,3.11
2017-03-18T01:13:17.754Z,3.09
2017-03-18T01:14:17.730Z,3.11
2017-03-18T01:15:06.716Z,3.12
2017-03-18T01:16:00.748Z,3.14
2017-03-18T01:16:48.833Z,3.13
2017-03-18T01:17:49.857Z,3.14
2017-03-18T01:18:38.871Z,3.14
2017-03-18T01:19:26.995Z,3.17
2017-03-18T01:20:21.994Z,3.18
2017-03-18T01:21:16.941Z,3.19
2017-03-18T01:22:11.040Z,3.22
2017-03-18T01:23:12.021Z,3.24
2017-03-18T01:24:07.041Z,3.26
2017-03-18T01:24:56.100Z,3.26
2017-03-18T01:25:50.117Z,3.24
2017-03-18T01:26:38.146Z,3.26
2017-03-18T01:27:27.236Z,3.26
2017-03-18T01:28:15.238Z,3.28
2017-03-18T01:29:04.266Z,3.28
2017-03-18T01:30:04.278Z,3.30
2017-03-18T01:31:04.348Z,3.30
2017-03-18T01:31:59.357Z,3.32
2017-03-18T01:32:48.445Z,3.34
2017-03-18T01:33:43.445Z,3.36
2017-03-18T01:34:43.443Z,3.40
2017-03-18T01:35:32.462Z,3.42
2017-03-18T01:36:26.515Z,3.40
2017-03-18T01:37:20.560Z,3.42
2017-03-18T01:38:14.616Z,3.44
2017-03-18T01:39:08.626Z,3.46
2017-03-18T01:39:56.652Z,3.44
2017-03-18T01:40:50.642Z,3.43
2017-03-18T01:41:45.745Z,3.46
2017-03-18T01:42:45.757Z,3.49
2017-03-18T01:43:40.776Z,3.50
2017-03-18T01:44:34.792Z,3.52
2017-03-18T01:45:28.847Z,3.54
2017-03-18T01:46:28.851Z,3.53
2017-03-18T01:47:16.941Z,3.54
2017-03-18T01:48:17.005Z,3.55
2017-03-18T01:49:11.994Z,3.56
2017-03-18T01:50:11.938Z,3.60
2017-03-18T01:51:06.026Z,3.64
2017-03-18T01:52:00.059Z,3.64
2017-03-18T01:52:54.053Z,3.72
2017-03-18T01:53:42.097Z,3.70
2017-03-18T01:54:31.133Z,3.72
2017-03-18T01:55:20.167Z,3.72
2017-03-18T01:56:08.187Z,3.74
2017-03-18T01:57:03.217Z,3.75
2017-03-18T01:57:51.298Z,3.75
2017-03-18T01:58:46.337Z,3.78
2017-03-18T01:59:46.346Z,3.81
2017-03-18T02:00:34.362Z,3.82
2017-03-18T02:01:28.421Z,3.83
2017-03-18T02:02:23.454Z,3.83
2017-03-18T02:03:17.468Z,3.84
2017-03-18T02:04:12.528Z,3.87
2017-03-18T02:05:06.508Z,3.88
2017-03-18T02:06:00.524Z,3.92
2017-03-18T02:06:54.618Z,3.94
2017-03-18T02:07:54.589Z,3.94
2017-03-18T02:08:48.655Z,3.95
2017-03-18T02:09:37.700Z,3.96
2017-03-18T02:10:26.739Z,3.96
2017-03-18T02:11:15.750Z,3.94
2017-03-18T02:12:09.736Z,3.95
2017-03-18T02:13:03.804Z,3.97
2017-03-18T02:14:04.845Z,4.00
2017-03-18T02:14:58.914Z,4.00
2017-03-18T02:15:52.939Z,3.99
2017-03-18T02:16:46.998Z,4.00
2017-03-18T02:17:34.990Z,3.99
2017-03-18T02:18:29.986Z,4.02
2017-03-18T02:19:24.036Z,4.02
2017-03-18T02:20:13.070Z,4.03
2017-03-18T02:21:13.129Z,4.06
2017-03-18T02:22:02.136Z,4.08
2017-03-18T02:22:51.171Z,4.08
2017-03-18T02:23:51.223Z,4.12
2017-03-18T02:24:39.276Z,4.12
2017-03-18T02:25:33.300Z,4.10
2017-03-18T02:26:21.377Z,4.14
2017-03-18T02:27:15.341Z,4.14
2017-03-18T02:28:10.421Z,4.14
2017-03-18T02:29:05.428Z,4.16
2017-03-18T02:30:00.454Z,4.14
2017-03-18T02:31:00.454Z,4.15
2017-03-18T02:31:54.529Z,4.14
2017-03-18T02:32:48.551Z,4.14
2017-03-18T02:33:42.529Z,4.14
2017-03-18T02:34:37.608Z,4.12
2017-03-18T02:35:31.643Z,4.12
2017-03-18T02:36:19.659Z,4.16
2017-03-18T02:37:14.669Z,4.15
2017-03-18T02:38:14.722Z,4.14
2017-03-18T02:39:09.745Z,4.14
2017-03-18T02:39:58.835Z,4.14
2017-03-18T02:40:52.832Z,4.16
2017-03-18T02:41:46.855Z,4.18
2017-03-18T02:42:35.877Z,4.20
2017-03-18T02:43:24.948Z,4.20
2017-03-18T02:44:13.966Z,4.21
2017-03-18T02:45:03.043Z,4.20
2017-03-18T02:45:58.050Z,4.21
2017-03-18T02:46:58.083Z,4.24
2017-03-18T02:47:53.149Z,4.22
2017-03-18T02:48:42.147Z,4.23
2017-03-18T02:49:36.128Z,4.24
2017-03-18T02:50:25.241Z,4.26
2017-03-18T02:51:19.269Z,4.27
2017-03-18T02:52:13.259Z,4.26
2017-03-18T02:53:07.331Z,4.25
2017-03-18T02:54:01.312Z,4.26
2017-03-18T02:54:55.366Z,4.26
2017-03-18T02:55:50.385Z,4.25
2017-03-18T02:56:39.452Z,4.24
2017-03-18T02:57:33.450Z,4.24
2017-03-18T02:58:27.536Z,4.24
2017-03-18T02:59:16.488Z,4.28
2017-03-18T03:00:17.551Z,4.28
2017-03-18T03:01:06.633Z,4.28
2017-03-18T03:02:00.643Z,4.30
2017-03-18T03:02:55.658Z,4.32
2017-03-18T03:03:49.721Z,4.32
2017-03-18T03:04:43.730Z,4.33
2017-03-18T03:05:38.771Z,4.34
2017-03-18T03:06:33.108Z,4.34
2017-03-18T03:07:33.227Z,4.36
2017-03-18T03:08:26.862Z,4.38
2017-03-18T03:09:15.850Z,4.38
2017-03-18T03:10:10.943Z,4.39
2017-03-18T03:10:59.960Z,4.38
2017-03-18T03:11:54.003Z,4.40
2017-03-18T03:12:49.030Z,4.42
2017-03-18T03:13:38.052Z,4.42
2017-03-18T03:14:32.149Z,4.42
2017-03-18T03:15:21.071Z,4.44
2017-03-18T03:16:15.110Z,4.42
2017-03-18T03:17:09.220Z,4.42
2017-03-18T03:18:03.238Z,4.42
2017-03-18T03:18:58.243Z,4.46
2017-03-18T03:19:47.334Z,4.46
2017-03-18T03:20:36.479Z,4.46
2017-03-18T03:21:31.355Z,4.49
2017-03-18T03:22:31.359Z,4.50
2017-03-18T03:23:25.478Z,4.52
2017-03-18T03:24:19.450Z,4.53
2017-03-18T03:25:13.529Z,4.54
2017-03-18T03:26:07.575Z,4.56
2017-03-18T03:26:56.565Z,4.56
2017-03-18T03:27:56.582Z,4.58
2017-03-18T03:28:45.648Z,4.58
2017-03-18T03:29:34.631Z,4.60
2017-03-18T03:30:29.752Z,4.58
2017-03-18T03:31:24.704Z,4.60
2017-03-18T03:32:18.755Z,4.62
2017-03-18T03:33:06.795Z,4.62
2017-03-18T03:34:06.841Z,4.64
2017-03-18T03:35:06.831Z,4.65
2017-03-18T03:35:54.895Z,4.66
2017-03-18T03:36:54.989Z,4.65
2017-03-18T03:37:43.986Z,4.68
2017-03-18T03:38:31.962Z,4.66
2017-03-18T03:39:27.056Z,4.69
2017-03-18T03:40:16.237Z,4.69
2017-03-18T03:41:05.123Z,4.69
2017-03-18T03:42:00.120Z,4.71
2017-03-18T03:42:54.147Z,4.72
2017-03-18T03:43:42.214Z,4.74
2017-03-18T03:44:36.243Z,4.75
2017-03-18T03:45:25.219Z,4.76
2017-03-18T03:46:19.319Z,4.77
2017-03-18T03:47:07.293Z,4.78
2017-03-18T03:48:01.357Z,4.81
2017-03-18T03:48:50.353Z,4.80
2017-03-18T03:49:39.705Z,4.82
2017-03-18T03:50:33.470Z,4.82
2017-03-18T03:51:27.520Z,4.82
2017-03-18T03:52:16.558Z,4.83
2017-03-18T03:53:10.585Z,4.84
2017-03-18T03:53:58.627Z,4.88
2017-03-18T03:54:52.689Z,4.88
2017-03-18T03:55:40.939Z,4.87
2017-03-18T03:56:34.715Z,4.88
2017-03-18T03:57:29.727Z,4.88
2017-03-18T03:58:17.753Z,4.90
2017-03-18T03:59:06.828Z,4.92
2017-03-18T03:59:55.794Z,4.94
2017-03-18T04:00:44.929Z,4.92
2017-03-18T04:01:38.949Z,4.94
2017-03-18T04:02:32.945Z,4.95
2017-03-18T04:03:22.024Z,4.96
2017-03-18T04:04:17.050Z,4.99
2017-03-18T04:05:11.083Z,4.99
2017-03-18T04:05:59.117Z,5.00
2017-03-18T04:06:48.159Z,5.03
2017-03-18T04:07:37.160Z,5.02
2017-03-18T04:08:26.167Z,5.04
2017-03-18T04:09:14.237Z,5.04
2017-03-18T04:10:09.255Z,5.04
2017-03-18T04:10:57.303Z,5.07
2017-03-18T04:11:46.344Z,5.08
2017-03-18T04:12:41.385Z,5.09
2017-03-18T04:13:29.429Z,5.09
2017-03-18T04:14:17.432Z,5.10
2017-03-18T04:15:12.524Z,5.12
2017-03-18T04:16:06.532Z,5.13
2017-03-18T04:17:01.547Z,5.13
2017-03-18T04:18:01.613Z,5.14
2017-03-18T04:18:50.645Z,5.18
2017-03-18T04:19:39.639Z,5.21
2017-03-18T04:20:33.702Z,5.22
2017-03-18T04:21:22.720Z,5.22
2017-03-18T04:22:17.759Z,5.24
2017-03-18T04:23:17.807Z,5.25
2017-03-18T04:24:11.808Z,5.26
2017-03-18T04:25:00.852Z,5.27
2017-03-18T04:25:48.865Z,5.28
2017-03-18T04:26:36.982Z,5.30
2017-03-18T04:27:32.000Z,5.30
2017-03-18T04:28:21.021Z,5.31
2017-03-18T04:29:10.009Z,5.34
2017-03-18T04:30:05.023Z,5.34
2017-03-18T04:30:59.110Z,5.36
2017-03-18T04:31:48.115Z,5.36
2017-03-18T04:32:37.177Z,5.39
2017-03-18T04:33:31.255Z,5.36
2017-03-18T04:34:19.239Z,5.39
2017-03-18T04:35:08.286Z,5.40
2017-03-18T04:36:03.319Z,5.42
2017-03-18T04:36:58.326Z,5.43
2017-03-18T04:37:58.347Z,5.44
2017-03-18T04:38:52.702Z,5.42
2017-03-18T04:39:41.472Z,5.44
2017-03-18T04:40:30.433Z,5.46
2017-03-18T04:41:24.526Z,5.46
2017-03-18T04:42:12.543Z,5.48
2017-03-18T04:43:01.621Z,5.49
2017-03-18T04:43:55.621Z,5.52
2017-03-18T04:44:44.952Z,5.52
2017-03-18T04:45:38.703Z,5.54
2017-03-18T04:46:33.747Z,5.53
2017-03-18T04:47:27.776Z,5.55
2017-03-18T04:48:21.849Z,5.55
2017-03-18T04:49:09.842Z,5.58
2017-03-18T04:50:03.906Z,5.57
2017-03-18T04:50:57.867Z,5.58
2017-03-18T04:51:46.181Z,5.60
2017-03-18T04:52:39.961Z,5.62
2017-03-18T04:53:34.029Z,5.64
2017-03-18T04:54:28.049Z,5.64
2017-03-18T04:55:22.050Z,5.67
2017-03-18T04:56:16.127Z,5.68
2017-03-18T04:57:10.134Z,5.68
2017-03-18T04:58:04.155Z,5.69
2017-03-18T04:58:53.233Z,5.68
2017-03-18T04:59:47.559Z,5.71
2017-03-18T05:00:41.247Z,5.71
2017-03-18T05:01:36.297Z,5.72
2017-03-18T05:02:30.351Z,5.72
2017-03-18T05:03:24.364Z,5.73
2017-03-18T05:04:12.416Z,5.74
2017-03-18T05:05:01.399Z,5.75
2017-03-18T05:05:55.452Z,5.76
2017-03-18T05:06:49.468Z,5.76
2017-03-18T05:07:37.571Z,5.78
2017-03-18T05:08:31.583Z,5.78
2017-03-18T05:09:19.623Z,5.78
2017-03-18T05:10:14.646Z,5.79
2017-03-18T05:11:03.969Z,5.80
2017-03-18T05:11:58.740Z,5.82
2017-03-18T05:12:48.061Z,5.84
2017-03-18T05:13:36.869Z,5.86
2017-03-18T05:14:30.763Z,5.88
2017-03-18T05:15:19.865Z,5.88
2017-03-18T05:16:08.906Z,5.88
2017-03-18T05:16:57.932Z,5.90
2017-03-18T05:17:52.956Z,5.90
2017-03-18T05:18:54.051Z,5.92
2017-03-18T05:19:43.048Z,5.92
2017-03-18T05:20:32.134Z,5.93
2017-03-18T05:21:21.094Z,5.96
2017-03-18T05:22:15.152Z,5.95
2017-03-18T05:23:10.194Z,5.98
2017-03-18T05:23:58.223Z,5.97
2017-03-18T05:24:58.240Z,5.99
2017-03-18T05:25:46.281Z,6.00
2017-03-18T05:26:40.277Z,5.99
2017-03-18T05:27:34.336Z,6.02
2017-03-18T05:28:28.412Z,6.04
2017-03-18T05:29:22.431Z,6.02
2017-03-18T05:30:17.457Z,6.06
2017-03-18T05:31:06.771Z,6.06
2017-03-18T05:31:55.519Z,6.06
2017-03-18T05:32:43.566Z,6.07
2017-03-18T05:33:38.067Z,6.08
2017-03-18T05:34:26.663Z,6.10
2017-03-18T05:35:20.655Z,6.11
2017-03-18T05:36:08.731Z,6.12
2017-03-18T05:37:02.735Z,6.14
2017-03-18T05:38:02.765Z,6.14
2017-03-18T05:38:51.826Z,6.16
2017-03-18T05:39:51.833Z,6.18
2017-03-18T05:40:46.867Z,6.18
2017-03-18T05:41:41.213Z,6.22
2017-03-18T05:42:34.942Z,6.23
2017-03-18T05:43:34.944Z,6.26
2017-03-18T05:44:28.983Z,6.28
2017-03-18T05:45:30.040Z,6.30
2017-03-18T05:46:18.044Z,6.28
2017-03-18T05:47:06.133Z,6.28
2017-03-18T05:48:00.157Z,6.34
2017-03-18T05:48:54.189Z,6.32
2017-03-18T05:49:43.224Z,6.34
2017-03-18T05:50:31.276Z,6.33
2017-03-18T05:51:19.324Z,6.36
2017-03-18T05:52:14.375Z,6.40
2017-03-18T05:53:08.644Z,6.42
2017-03-18T05:53:57.411Z,6.41
2017-03-18T05:54:45.454Z,6.46
2017-03-18T05:55:45.470Z,6.49
2017-03-18T05:56:34.508Z,6.49
2017-03-18T05:57:28.559Z,6.53
2017-03-18T05:58:22.634Z,6.52
2017-03-18T05:59:10.641Z,6.53
2017-03-18T06:00:04.657Z,6.55
2017-03-18T06:00:58.701Z,6.56
2017-03-18T06:01:52.722Z,6.59
2017-03-18T06:02:47.763Z,6.62
2017-03-18T06:03:41.815Z,6.64
2017-03-18T06:04:36.814Z,6.65
2017-03-18T06:05:36.829Z,6.70
2017-03-18T06:06:31.926Z,6.76
2017-03-18T06:07:25.983Z,6.77
2017-03-18T06:08:15.170Z,6.78
2017-03-18T06:09:03.022Z,6.77
2017-03-18T06:09:52.053Z,6.78
2017-03-18T06:10:40.060Z,6.80
2017-03-18T06:11:29.126Z,6.81
2017-03-18T06:12:24.160Z,6.84
2017-03-18T06:13:13.264Z,6.88
2017-03-18T06:14:02.542Z,6.88
2017-03-18T06:14:51.235Z,6.90
2017-03-18T06:15:40.368Z,6.95
2017-03-18T06:16:35.345Z,6.94
2017-03-18T06:17:24.396Z,6.95
2017-03-18T06:18:18.382Z,6.96
2017-03-18T06:19:07.754Z,6.99
2017-03-18T06:19:56.512Z,7.03
2017-03-18T06:20:44.500Z,7.06
2017-03-18T06:21:32.573Z,7.10
2017-03-18T06:22:21.551Z,7.15
2017-03-18T06:23:09.643Z,7.10
2017-03-18T06:23:57.696Z,7.16
2017-03-18T06:24:52.052Z,7.18
2017-03-18T06:25:46.182Z,7.20
2017-03-18T06:26:39.846Z,7.18
2017-03-18T06:27:33.852Z,7.24
2017-03-18T06:28:28.890Z,7.26
2017-03-18T06:29:22.941Z,7.25
2017-03-18T06:30:11.259Z,7.26
2017-03-18T06:30:59.010Z,7.28
2017-03-18T06:31:48.395Z,7.34
2017-03-18T06:32:36.065Z,7.35
2017-03-18T06:33:36.111Z,7.28
2017-03-18T06:34:30.116Z,7.35
2017-03-18T06:35:24.535Z,7.37
2017-03-18T06:36:12.238Z,7.38
2017-03-18T06:37:01.241Z,7.38
2017-03-18T06:37:55.296Z,7.38
2017-03-18T06:38:49.282Z,7.44
2017-03-18T06:39:43.346Z,7.47
2017-03-18T06:40:37.713Z,7.45
2017-03-18T06:41:31.425Z,7.44
2017-03-18T06:42:25.436Z,7.46
2017-03-18T06:43:13.510Z,7.48
2017-03-18T06:44:01.584Z,7.50
2017-03-18T06:44:49.870Z,7.54
2017-03-18T06:45:43.914Z,7.47
2017-03-18T06:46:38.650Z,7.56
2017-03-18T06:47:27.705Z,7.57
2017-03-18T06:48:16.761Z,7.56
2017-03-18T06:49:05.794Z,7.58
2017-03-18T06:49:54.846Z,7.63
2017-03-18T06:50:44.144Z,7.60
2017-03-18T06:51:31.962Z,7.57
2017-03-18T06:52:26.212Z,7.66
2017-03-18T06:53:14.946Z,7.60
2017-03-18T06:54:04.011Z,7.65
2017-03-18T06:54:53.049Z,7.64
2017-03-18T06:55:47.096Z,7.68
2017-03-18T06:56:35.113Z,7.67
2017-03-18T06:57:24.138Z,7.65
2017-03-18T06:58:13.621Z,7.65
2017-03-18T06:59:08.246Z,7.73
2017-03-18T07:00:08.271Z,7.74
2017-03-18T07:00:57.469Z,7.71
2017-03-18T07:01:51.487Z,7.76
2017-03-18T07:02:45.497Z,7.77
2017-03-18T07:03:33.733Z,7.76
2017-03-18T07:04:27.471Z,7.80
2017-03-18T07:05:16.510Z,7.83
2017-03-18T07:06:05.559Z,7.83
2017-03-18T07:06:59.596Z,7.86
2017-03-18T07:07:47.615Z,7.88
2017-03-18T07:08:36.994Z,7.81
2017-03-18T07:09:36.707Z,7.84
2017-03-18T07:10:30.676Z,7.82
2017-03-18T07:11:19.766Z,7.84
2017-03-18T07:12:19.787Z,7.84
2017-03-18T07:13:13.840Z,7.84
2017-03-18T07:14:02.050Z,7.86
2017-03-18T07:14:55.873Z,7.88
2017-03-18T07:15:44.959Z,7.84
2017-03-18T07:16:34.037Z,7.88
2017-03-18T07:17:28.011Z,7.89
2017-03-18T07:18:16.081Z,7.91
2017-03-18T07:19:11.131Z,7.86
2017-03-18T07:20:05.171Z,7.88
2017-03-18T07:20:54.482Z,7.94
2017-03-18T07:21:48.231Z,7.92
2017-03-18T07:22:42.277Z,7.92
2017-03-18T07:23:36.276Z,7.98
2017-03-18T07:24:25.513Z,7.93
2017-03-18T07:25:20.359Z,7.93
2017-03-18T07:26:09.428Z,7.98
2017-03-18T07:27:09.489Z,8.00
2017-03-18T07:28:03.471Z,7.98
2017-03-18T07:28:57.958Z,7.92
2017-03-18T07:29:46.687Z,7.95
2017-03-18T07:30:41.591Z,7.98
2017-03-18T07:31:41.639Z,8.02
2017-03-18T07:32:30.597Z,8.02
2017-03-18T07:33:19.706Z,7.98
2017-03-18T07:34:08.766Z,8.04
2017-03-18T07:34:57.750Z,8.02
2017-03-18T07:35:46.841Z,8.10
2017-03-18T07:36:34.827Z,8.02
2017-03-18T07:37:29.160Z,8.06
2017-03-18T07:38:22.929Z,8.12
2017-03-18T07:39:16.943Z,8.04
2017-03-18T07:40:04.992Z,8.09
2017-03-18T07:40:53.029Z,8.11
2017-03-18T07:41:41.044Z,8.10
2017-03-18T07:42:30.112Z,8.08
2017-03-18T07:43:24.152Z,8.09
2017-03-18T07:44:19.236Z,8.14
2017-03-18T07:45:13.426Z,8.18
2017-03-18T07:46:01.271Z,8.15
2017-03-18T07:46:50.326Z,8.08
2017-03-18T07:47:44.380Z,8.12
2017-03-18T07:48:32.443Z,8.13
2017-03-18T07:49:21.463Z,8.12
2017-03-18T07:50:16.501Z,8.16
2017-03-18T07:51:10.532Z,8.19
2017-03-18T07:51:58.552Z,8.22
2017-03-18T07:52:47.597Z,8.24
2017-03-18T07:53:35.652Z,8.20
2017-03-18T07:54:24.712Z,8.24
2017-03-18T07:55:12.727Z,8.28
2017-03-18T07:56:01.045Z,8.22
2017-03-18T07:56:54.792Z,8.22
2017-03-18T07:57:48.845Z,8.23
2017-03-18T07:58:36.871Z,8.27
2017-03-18T07:59:25.965Z,8.18
2017-03-18T08:00:13.956Z,8.24
2017-03-18T08:01:02.335Z,8.21
2017-03-18T08:01:56.047Z,8.22
2017-03-18T08:02:56.093Z,8.22
2017-03-18T08:03:45.151Z,8.23
2017-03-18T08:04:33.453Z,8.20
2017-03-18T08:05:21.216Z,8.22
2017-03-18T08:06:10.238Z,8.26
2017-03-18T08:06:58.296Z,8.31
2017-03-18T08:07:52.337Z,8.26
2017-03-18T08:08:41.350Z,8.22
2017-03-18T08:09:29.430Z,8.28
2017-03-18T08:10:17.454Z,8.25
2017-03-18T08:11:06.441Z,8.30
2017-03-18T08:11:54.552Z,8.29
2017-03-18T08:12:48.566Z,8.24
2017-03-18T08:13:37.921Z,8.29
2017-03-18T08:14:31.635Z,8.30
2017-03-18T08:15:20.700Z,8.32
2017-03-18T08:16:14.754Z,8.30
2017-03-18T08:17:03.052Z,8.24
2017-03-18T08:17:56.835Z,8.32
2017-03-18T08:18:45.839Z,8.34
2017-03-18T08:19:34.865Z,8.34
2017-03-18T08:20:22.928Z,8.34
2017-03-18T08:21:11.938Z,8.36
2017-03-18T08:22:00.027Z,8.28
2017-03-18T08:22:54.073Z,8.30
2017-03-18T08:23:49.081Z,8.29
2017-03-18T08:24:38.382Z,8.28
2017-03-18T08:25:32.144Z,8.26
2017-03-18T08:26:21.226Z,8.30
2017-03-18T08:27:09.281Z,8.34
2017-03-18T08:28:03.340Z,8.27
2017-03-18T08:28:51.358Z,8.26
2017-03-18T08:29:45.353Z,8.23
2017-03-18T08:30:39.792Z,8.22
2017-03-18T08:31:27.473Z,8.22
2017-03-18T08:32:16.448Z,8.30
2017-03-18T08:33:10.612Z,8.28
2017-03-18T08:33:59.569Z,8.26
2017-03-18T08:34:53.617Z,8.27
2017-03-18T08:35:42.664Z,8.36
2017-03-18T08:36:36.723Z,8.33
2017-03-18T08:37:30.732Z,8.35
2017-03-18T08:38:18.765Z,8.39
2017-03-18T08:39:08.043Z,8.40
2017-03-18T08:40:01.821Z,8.36
2017-03-18T08:40:56.876Z,8.38
2017-03-18T08:41:45.928Z,8.34
2017-03-18T08:42:40.285Z,8.38
2017-03-18T08:43:28.056Z,8.35
2017-03-18T08:44:22.057Z,8.36
2017-03-18T08:45:17.054Z,8.30
2017-03-18T08:46:12.122Z,8.36
2017-03-18T08:47:01.156Z,8.36
2017-03-18T08:47:55.218Z,8.33
2017-03-18T08:48:44.440Z,8.36
2017-03-18T08:49:38.257Z,8.31
2017-03-18T08:50:32.298Z,8.25
2017-03-18T08:51:21.330Z,8.25
2017-03-18T08:52:09.376Z,8.18
2017-03-18T08:53:03.428Z,8.16
2017-03-18T08:53:57.473Z,8.15
2017-03-18T08:54:51.464Z,8.10
2017-03-18T08:55:40.530Z,8.09
2017-03-18T08:56:28.576Z,8.08
2017-03-18T08:57:22.643Z,8.06
2017-03-18T08:58:17.681Z,8.04
2017-03-18T08:59:06.731Z,8.12
2017-03-18T09:00:00.729Z,8.05
2017-03-18T09:00:54.747Z,8.12
2017-03-18T09:01:48.798Z,8.07
2017-03-18T09:02:44.168Z,8.16
2017-03-18T09:03:31.947Z,8.12
2017-03-18T09:04:20.024Z,8.16
2017-03-18T09:05:13.980Z,8.16
2017-03-18T09:06:09.031Z,8.19
2017-03-18T09:06:57.059Z,8.22
2017-03-18T09:07:51.011Z,8.27
2017-03-18T09:08:40.121Z,8.28
2017-03-18T09:09:29.202Z,8.27
2017-03-18T09:10:18.418Z,8.28
2017-03-18T09:11:07.229Z,8.40
2017-03-18T09:11:56.311Z,8.52
2017-03-18T09:12:50.259Z,8.70
2017-03-18T09:13:44.376Z,8.72
2017-03-18T09:14:33.419Z,8.70
2017-03-18T09:15:22.461Z,8.74
2017-03-18T09:16:16.486Z,8.76
2017-03-18T09:17:05.543Z,8.86
2017-03-18T09:17:54.547Z,8.96
2017-03-18T09:18:48.898Z,8.90
2017-03-18T09:19:43.689Z,9.02
2017-03-18T09:20:37.711Z,8.94
2017-03-18T09:21:26.690Z,9.00
2017-03-18T09:22:14.767Z,8.99
2017-03-18T09:23:03.813Z,8.99
2017-03-18T09:23:52.180Z,8.90
2017-03-18T09:24:40.868Z,8.85
2017-03-18T09:25:28.947Z,8.91
2017-03-18T09:26:23.190Z,8.98
2017-03-18T09:27:11.012Z,9.10
2017-03-18T09:27:59.064Z,9.22
2017-03-18T09:28:53.358Z,9.12
2017-03-18T09:29:41.138Z,9.02
2017-03-18T09:30:35.231Z,8.98
2017-03-18T09:31:29.231Z,8.94
2017-03-18T09:32:17.254Z,8.94
2017-03-18T09:33:06.327Z,9.00
2017-03-18T09:34:06.377Z,9.00
2017-03-18T09:34:55.374Z,8.99
2017-03-18T09:35:44.457Z,8.97
2017-03-18T09:36:33.495Z,9.03
2017-03-18T09:37:22.804Z,8.96
2017-03-18T09:38:10.565Z,8.99
2017-03-18T09:39:04.633Z,8.97
2017-03-18T09:39:52.903Z,8.90
2017-03-18T09:40:40.718Z,8.87
2017-03-18T09:41:29.738Z,8.84
2017-03-18T09:42:17.759Z,8.79
2017-03-18T09:43:06.826Z,8.75
2017-03-18T09:44:01.853Z,8.75
2017-03-18T09:45:01.877Z,8.66
2017-03-18T09:45:56.215Z,8.63
2017-03-18T09:46:44.014Z,8.54
2017-03-18T09:47:33.032Z,8.61
2017-03-18T09:48:27.161Z,8.44
2017-03-18T09:49:15.139Z,8.34
2017-03-18T09:50:09.144Z,8.22
2017-03-18T09:51:04.162Z,8.17
2017-03-18T09:51:53.224Z,8.16
2017-03-18T09:52:47.282Z,8.11
2017-03-18T09:53:41.323Z,8.10
2017-03-18T09:54:36.320Z,8.09
2017-03-18T09:55:25.605Z,8.07
2017-03-18T09:56:19.448Z,8.04
2017-03-18T09:57:13.479Z,8.04
2017-03-18T09:58:01.496Z,8.06
2017-03-18T09:58:55.554Z,8.03
2017-03-18T09:59:50.574Z,8.04
2017-03-18T10:00:39.635Z,8.12
2017-03-18T10:01:34.623Z,8.15
2017-03-18T10:02:29.002Z,8.24
2017-03-18T10:03:16.749Z,8.24
2017-03-18T10:04:04.738Z,8.36
2017-03-18T10:04:59.129Z,8.35
2017-03-18T10:05:47.857Z,8.34
2017-03-18T10:06:35.945Z,8.35
2017-03-18T10:07:31.114Z,8.33
2017-03-18T10:08:19.947Z,8.33
2017-03-18T10:09:08.034Z,8.44
2017-03-18T10:09:57.067Z,8.50
2017-03-18T10:10:51.153Z,8.50
2017-03-18T10:11:40.147Z,8.52
2017-03-18T10:12:29.387Z,8.48
2017-03-18T10:13:18.279Z,8.49
2017-03-18T10:14:07.289Z,8.51
2017-03-18T10:14:55.343Z,8.54
2017-03-18T10:15:44.392Z,8.60
2017-03-18T10:16:32.602Z,8.57
2017-03-18T10:17:26.440Z,8.69
2017-03-18T10:18:20.530Z,8.80
2017-03-18T10:19:14.537Z,8.76
2017-03-18T10:20:08.591Z,8.86
2017-03-18T10:21:02.892Z,8.88
2017-03-18T10:21:51.653Z,8.86
2017-03-18T10:22:45.702Z,8.83
2017-03-18T10:23:33.973Z,8.80
2017-03-18T10:24:27.811Z,8.87
2017-03-18T10:25:21.810Z,8.98
2017-03-18T10:26:16.852Z,8.96
2017-03-18T10:27:11.981Z,8.84
2017-03-18T10:28:01.000Z,8.86
2017-03-18T10:28:55.048Z,8.75
2017-03-18T10:29:49.043Z,8.76
2017-03-18T10:30:38.061Z,8.67
2017-03-18T10:31:27.123Z,8.69
2017-03-18T10:32:22.224Z,8.63
2017-03-18T10:33:16.266Z,8.66
2017-03-18T10:34:05.574Z,8.66
2017-03-18T10:34:53.325Z,8.70
2017-03-18T10:35:42.340Z,8.74
2017-03-18T10:36:36.363Z,8.76
2017-03-18T10:37:30.437Z,8.85
2017-03-18T10:38:24.527Z,8.80
2017-03-18T10:39:13.533Z,8.81
2017-03-18T10:40:01.556Z,8.86
2017-03-18T10:40:55.619Z,8.85
2017-03-18T10:41:49.628Z,8.85
2017-03-18T10:42:44.727Z,8.82
2017-03-18T10:43:33.811Z,8.88
2017-03-18T10:44:27.823Z,8.84
2017-03-18T10:45:15.837Z,8.91
2017-03-18T10:46:10.826Z,8.91
2017-03-18T10:47:06.272Z,8.97
2017-03-18T10:47:59.953Z,9.14
2017-03-18T10:48:48.004Z,9.16
2017-03-18T10:49:37.325Z,9.22
2017-03-18T10:50:32.093Z,9.16
2017-03-18T10:51:21.142Z,9.13
2017-03-18T10:52:15.138Z,9.12
2017-03-18T10:53:03.226Z,9.08
2017-03-18T10:53:57.263Z,9.12
2017-03-18T10:54:51.308Z,9.16
2017-03-18T10:55:46.341Z,9.16
2017-03-18T10:56:40.404Z,9.12
2017-03-18T10:57:28.427Z,9.22
2017-03-18T10:58:17.456Z,9.22
2017-03-18T10:59:05.515Z,9.28
2017-03-18T10:59:54.566Z,9.32
2017-03-18T11:00:42.628Z,9.46
2017-03-18T11:01:30.662Z,9.47
2017-03-18T11:02:24.718Z,9.46
2017-03-18T11:03:18.773Z,9.50
2017-03-18T11:04:08.096Z,9.62
2017-03-18T11:04:55.855Z,9.76
2017-03-18T11:05:49.862Z,9.74
2017-03-18T11:06:39.233Z,9.76
2017-03-18T11:07:32.950Z,9.79
2017-03-18T11:08:22.048Z,9.84
2017-03-18T11:09:16.053Z,9.90
2017-03-18T11:10:10.438Z,9.84
2017-03-18T11:10:58.143Z,9.84
2017-03-18T11:11:46.152Z,9.78
2017-03-18T11:12:40.504Z,9.78
2017-03-18T11:13:34.250Z,9.84
2017-03-18T11:14:22.347Z,10.02
2017-03-18T11:15:17.427Z,10.12
2017-03-18T11:16:11.694Z,10.29
2017-03-18T11:17:00.442Z,10.42
2017-03-18T11:17:49.519Z,10.46
2017-03-18T11:18:38.728Z,10.44
2017-03-18T11:19:27.609Z,10.68
2017-03-18T11:20:15.614Z,10.56
2017-03-18T11:21:09.752Z,10.55
2017-03-18T11:21:58.766Z,10.68
2017-03-18T11:22:46.806Z,10.70
2017-03-18T11:23:40.905Z,10.77
2017-03-18T11:24:28.861Z,10.88
2017-03-18T11:25:22.943Z,11.05
2017-03-18T11:26:11.018Z,11.11
2017-03-18T11:27:06.040Z,11.04
2017-03-18T11:27:54.751Z,11.32
2017-03-18T11:28:43.157Z,41.83
2017-03-18T11:29:31.569Z,15.51
2017-03-18T11:30:25.365Z,43.52
2017-03-18T11:31:14.934Z,44.56
2017-03-18T11:32:08.643Z,16.30
2017-03-18T11:33:02.726Z,13.92